sensor_id;sensor_type;location;lat;lon;timestamp;P1;durP1;ratioP1;P2;durP2;ratioP2
6823;SDS011;58633;49.470;11.004;2023-01-10T00:01:47;3.07;;;1.80;;
6823;SDS011;58633;49.470;11.004;2023-01-10T00:04:12;2.00;;;1.40;;
6823;SDS011;58633;49.470;11.004;2023-01-10T00:06:38;2.20;;;1.50;;
6823;SDS011;58633;49.470;11.004;2023-01-10T00:09:03;2.83;;;1.90;;
6823;SDS011;58633;49.470;11.004;2023-01-10T00:11:29;3.13;;;1.90;;
6823;SDS011;58633;49.470;11.004;2023-01-10T00:14:13;3.23;;;2.30;;
6823;SDS011;58633;49.470;11.004;2023-01-10T00:16:39;2.70;;;1.70;;
6823;SDS011;58633;49.470;11.004;2023-01-10T00:19:06;4.77;;;1.80;;
6823;SDS011;58633;49.470;11.004;2023-01-10T00:21:33;1.90;;;1.80;;
6823;SDS011;58633;49.470;11.004;2023-01-10T00:23:59;4.57;;;1.83;;
6823;SDS011;58633;49.470;11.004;2023-01-10T00:26:43;2.80;;;1.70;;
6823;SDS011;58633;49.470;11.004;2023-01-10T00:29:15;6.67;;;2.10;;
6823;SDS011;58633;49.470;11.004;2023-01-10T00:31:44;1.80;;;1.67;;
6823;SDS011;58633;49.470;11.004;2023-01-10T00:34:10;2.57;;;1.80;;
6823;SDS011;58633;49.470;11.004;2023-01-10T00:36:36;2.90;;;1.83;;
6823;SDS011;58633;49.470;11.004;2023-01-10T00:39:01;3.13;;;2.10;;
6823;SDS011;58633;49.470;11.004;2023-01-10T00:41:28;2.17;;;1.80;;
6823;SDS011;58633;49.470;11.004;2023-01-10T00:44:12;1.90;;;1.70;;
6823;SDS011;58633;49.470;11.004;2023-01-10T00:46:37;2.20;;;1.90;;
6823;SDS011;58633;49.470;11.004;2023-01-10T00:49:03;2.10;;;1.57;;
6823;SDS011;58633;49.470;11.004;2023-01-10T00:51:32;3.17;;;2.37;;
6823;SDS011;58633;49.470;11.004;2023-01-10T00:53:58;1.73;;;1.57;;
6823;SDS011;58633;49.470;11.004;2023-01-10T00:56:24;2.87;;;1.90;;
6823;SDS011;58633;49.470;11.004;2023-01-10T00:58:49;2.30;;;1.60;;
6823;SDS011;58633;49.470;11.004;2023-01-10T01:01:15;1.87;;;1.73;;
6823;SDS011;58633;49.470;11.004;2023-01-10T01:03:41;2.30;;;2.10;;
6823;SDS011;58633;49.470;11.004;2023-01-10T01:06:06;3.43;;;1.80;;
6823;SDS011;58633;49.470;11.004;2023-01-10T01:08:32;2.80;;;2.43;;
6823;SDS011;58633;49.470;11.004;2023-01-10T01:10:58;3.67;;;2.70;;
6823;SDS011;58633;49.470;11.004;2023-01-10T01:13:23;3.47;;;2.03;;
6823;SDS011;58633;49.470;11.004;2023-01-10T01:15:49;2.50;;;2.00;;
6823;SDS011;58633;49.470;11.004;2023-01-10T01:18:17;3.60;;;1.70;;
6823;SDS011;58633;49.470;11.004;2023-01-10T01:20:44;1.70;;;1.60;;
6823;SDS011;58633;49.470;11.004;2023-01-10T01:23:11;4.20;;;2.10;;
6823;SDS011;58633;49.470;11.004;2023-01-10T01:25:37;2.27;;;2.00;;
6823;SDS011;58633;49.470;11.004;2023-01-10T01:28:03;3.50;;;1.77;;
6823;SDS011;58633;49.470;11.004;2023-01-10T01:30:28;2.00;;;1.77;;
6823;SDS011;58633;49.470;11.004;2023-01-10T01:32:54;3.23;;;2.00;;
6823;SDS011;58633;49.470;11.004;2023-01-10T01:35:19;3.33;;;2.03;;
6823;SDS011;58633;49.470;11.004;2023-01-10T01:37:45;1.93;;;1.80;;
6823;SDS011;58633;49.470;11.004;2023-01-10T01:40:14;1.83;;;1.70;;
6823;SDS011;58633;49.470;11.004;2023-01-10T01:42:44;1.90;;;1.80;;
6823;SDS011;58633;49.470;11.004;2023-01-10T01:47:47;2.80;;;1.77;;
6823;SDS011;58633;49.470;11.004;2023-01-10T01:50:37;1.90;;;1.70;;
6823;SDS011;58633;49.470;11.004;2023-01-10T01:53:42;2.17;;;1.60;;
6823;SDS011;58633;49.470;11.004;2023-01-10T01:56:25;2.40;;;1.83;;
6823;SDS011;58633;49.470;11.004;2023-01-10T01:59:12;2.07;;;1.53;;
6823;SDS011;58633;49.470;11.004;2023-01-10T02:01:43;3.10;;;1.87;;
6823;SDS011;58633;49.470;11.004;2023-01-10T02:04:12;1.97;;;1.77;;
6823;SDS011;58633;49.470;11.004;2023-01-10T02:06:40;2.47;;;1.80;;
6823;SDS011;58633;49.470;11.004;2023-01-10T02:09:28;2.90;;;1.80;;
6823;SDS011;58633;49.470;11.004;2023-01-10T02:11:58;3.23;;;1.87;;
6823;SDS011;58633;49.470;11.004;2023-01-10T02:14:25;1.70;;;1.60;;
6823;SDS011;58633;49.470;11.004;2023-01-10T02:16:51;1.70;;;1.60;;
6823;SDS011;58633;49.470;11.004;2023-01-10T02:22:17;1.60;;;1.50;;
6823;SDS011;58633;49.470;11.004;2023-01-10T02:33:27;2.47;;;1.80;;
6823;SDS011;58633;49.470;11.004;2023-01-10T02:38:36;1.67;;;1.57;;
6823;SDS011;58633;49.470;11.004;2023-01-10T02:43:37;2.83;;;1.73;;
6823;SDS011;58633;49.470;11.004;2023-01-10T02:46:07;1.70;;;1.60;;
6823;SDS011;58633;49.470;11.004;2023-01-10T02:48:40;3.10;;;1.70;;
6823;SDS011;58633;49.470;11.004;2023-01-10T02:51:10;2.10;;;2.00;;
6823;SDS011;58633;49.470;11.004;2023-01-10T02:53:47;1.93;;;1.83;;
6823;SDS011;58633;49.470;11.004;2023-01-10T03:01:26;2.00;;;1.90;;
6823;SDS011;58633;49.470;11.004;2023-01-10T03:07:17;2.00;;;1.90;;
6823;SDS011;58633;49.470;11.004;2023-01-10T03:12:30;2.17;;;2.00;;
6823;SDS011;58633;49.470;11.004;2023-01-10T03:15:20;2.47;;;2.10;;
6823;SDS011;58633;49.470;11.004;2023-01-10T03:17:50;3.57;;;2.37;;
6823;SDS011;58633;49.470;11.004;2023-01-10T03:20:20;3.60;;;2.47;;
6823;SDS011;58633;49.470;11.004;2023-01-10T03:22:47;3.20;;;2.60;;
6823;SDS011;58633;49.470;11.004;2023-01-10T03:25:14;2.57;;;2.37;;
6823;SDS011;58633;49.470;11.004;2023-01-10T03:27:47;3.20;;;2.77;;
6823;SDS011;58633;49.470;11.004;2023-01-10T03:30:25;3.03;;;2.50;;
6823;SDS011;58633;49.470;11.004;2023-01-10T03:33:10;2.77;;;2.57;;
6823;SDS011;58633;49.470;11.004;2023-01-10T03:36:02;2.80;;;2.60;;
6823;SDS011;58633;49.470;11.004;2023-01-10T03:38:43;4.47;;;2.50;;
6823;SDS011;58633;49.470;11.004;2023-01-10T03:46:54;3.93;;;2.63;;
6823;SDS011;58633;49.470;11.004;2023-01-10T03:49:24;4.23;;;2.90;;
6823;SDS011;58633;49.470;11.004;2023-01-10T03:51:51;2.77;;;2.57;;
6823;SDS011;58633;49.470;11.004;2023-01-10T03:54:18;3.00;;;2.70;;
6823;SDS011;58633;49.470;11.004;2023-01-10T03:56:47;3.07;;;2.77;;
6823;SDS011;58633;49.470;11.004;2023-01-10T03:59:15;2.70;;;2.50;;
6823;SDS011;58633;49.470;11.004;2023-01-10T04:01:43;2.60;;;2.40;;
6823;SDS011;58633;49.470;11.004;2023-01-10T04:04:08;3.43;;;2.30;;
6823;SDS011;58633;49.470;11.004;2023-01-10T04:06:35;2.47;;;2.13;;
6823;SDS011;58633;49.470;11.004;2023-01-10T04:09:00;2.70;;;2.30;;
6823;SDS011;58633;49.470;11.004;2023-01-10T04:11:26;3.13;;;2.27;;
6823;SDS011;58633;49.470;11.004;2023-01-10T04:13:52;2.57;;;2.37;;
6823;SDS011;58633;49.470;11.004;2023-01-10T04:16:17;3.23;;;2.60;;
6823;SDS011;58633;49.470;11.004;2023-01-10T04:18:44;3.10;;;2.80;;
6823;SDS011;58633;49.470;11.004;2023-01-10T04:21:09;4.33;;;2.90;;
6823;SDS011;58633;49.470;11.004;2023-01-10T04:23:35;3.37;;;2.90;;
6823;SDS011;58633;49.470;11.004;2023-01-10T04:26:00;3.53;;;2.93;;
6823;SDS011;58633;49.470;11.004;2023-01-10T04:28:26;3.00;;;2.80;;
6823;SDS011;58633;49.470;11.004;2023-01-10T04:30:51;3.80;;;3.40;;
6823;SDS011;58633;49.470;11.004;2023-01-10T04:33:17;3.53;;;3.23;;
6823;SDS011;58633;49.470;11.004;2023-01-10T04:35:46;3.80;;;3.40;;
6823;SDS011;58633;49.470;11.004;2023-01-10T04:38:13;4.10;;;3.23;;
6823;SDS011;58633;49.470;11.004;2023-01-10T04:40:38;3.40;;;3.10;;
6823;SDS011;58633;49.470;11.004;2023-01-10T04:43:04;3.97;;;3.37;;
6823;SDS011;58633;49.470;11.004;2023-01-10T04:45:29;3.93;;;3.00;;
6823;SDS011;58633;49.470;11.004;2023-01-10T04:47:55;4.63;;;3.10;;
6823;SDS011;58633;49.470;11.004;2023-01-10T04:50:21;3.40;;;3.10;;
6823;SDS011;58633;49.470;11.004;2023-01-10T04:52:47;3.47;;;2.90;;
6823;SDS011;58633;49.470;11.004;2023-01-10T04:55:13;3.67;;;2.80;;
6823;SDS011;58633;49.470;11.004;2023-01-10T04:57:38;3.60;;;3.00;;
6823;SDS011;58633;49.470;11.004;2023-01-10T05:00:04;3.67;;;3.20;;
6823;SDS011;58633;49.470;11.004;2023-01-10T05:02:30;4.63;;;3.27;;
6823;SDS011;58633;49.470;11.004;2023-01-10T05:04:55;5.80;;;3.50;;
6823;SDS011;58633;49.470;11.004;2023-01-10T05:07:21;3.33;;;3.07;;
6823;SDS011;58633;49.470;11.004;2023-01-10T05:09:46;5.67;;;3.57;;
6823;SDS011;58633;49.470;11.004;2023-01-10T05:12:12;6.87;;;3.10;;
6823;SDS011;58633;49.470;11.004;2023-01-10T05:14:37;4.33;;;3.00;;
6823;SDS011;58633;49.470;11.004;2023-01-10T05:17:03;4.27;;;3.10;;
6823;SDS011;58633;49.470;11.004;2023-01-10T05:19:28;4.70;;;3.17;;
6823;SDS011;58633;49.470;11.004;2023-01-10T05:21:54;4.30;;;3.03;;
6823;SDS011;58633;49.470;11.004;2023-01-10T05:24:20;3.70;;;3.00;;
6823;SDS011;58633;49.470;11.004;2023-01-10T05:26:46;5.87;;;3.10;;
6823;SDS011;58633;49.470;11.004;2023-01-10T05:29:11;3.27;;;2.97;;
6823;SDS011;58633;49.470;11.004;2023-01-10T05:31:38;3.90;;;3.20;;
6823;SDS011;58633;49.470;11.004;2023-01-10T05:34:04;4.57;;;3.47;;
6823;SDS011;58633;49.470;11.004;2023-01-10T05:36:29;3.73;;;3.23;;
6823;SDS011;58633;49.470;11.004;2023-01-10T05:38:55;3.33;;;3.03;;
6823;SDS011;58633;49.470;11.004;2023-01-10T05:41:21;4.27;;;3.50;;
6823;SDS011;58633;49.470;11.004;2023-01-10T05:43:47;5.27;;;3.20;;
6823;SDS011;58633;49.470;11.004;2023-01-10T05:46:13;3.37;;;3.07;;
6823;SDS011;58633;49.470;11.004;2023-01-10T05:48:39;5.00;;;3.37;;
6823;SDS011;58633;49.470;11.004;2023-01-10T05:51:05;5.93;;;3.57;;
6823;SDS011;58633;49.470;11.004;2023-01-10T05:53:30;4.83;;;3.20;;
6823;SDS011;58633;49.470;11.004;2023-01-10T05:55:56;6.63;;;3.60;;
6823;SDS011;58633;49.470;11.004;2023-01-10T05:58:23;4.37;;;3.50;;
6823;SDS011;58633;49.470;11.004;2023-01-10T06:00:49;5.80;;;3.50;;
6823;SDS011;58633;49.470;11.004;2023-01-10T06:03:15;7.03;;;3.63;;
6823;SDS011;58633;49.470;11.004;2023-01-10T06:05:41;3.87;;;3.40;;
6823;SDS011;58633;49.470;11.004;2023-01-10T06:08:07;4.17;;;3.37;;
6823;SDS011;58633;49.470;11.004;2023-01-10T06:10:32;8.67;;;4.20;;
6823;SDS011;58633;49.470;11.004;2023-01-10T06:12:58;5.17;;;3.73;;
6823;SDS011;58633;49.470;11.004;2023-01-10T06:15:23;4.00;;;3.10;;
6823;SDS011;58633;49.470;11.004;2023-01-10T06:17:49;5.70;;;3.37;;
6823;SDS011;58633;49.470;11.004;2023-01-10T06:20:14;5.50;;;3.43;;
6823;SDS011;58633;49.470;11.004;2023-01-10T06:22:40;4.90;;;3.30;;
6823;SDS011;58633;49.470;11.004;2023-01-10T06:25:07;5.50;;;3.50;;
6823;SDS011;58633;49.470;11.004;2023-01-10T06:27:40;3.43;;;2.90;;
6823;SDS011;58633;49.470;11.004;2023-01-10T06:30:07;3.90;;;3.00;;
6823;SDS011;58633;49.470;11.004;2023-01-10T06:32:34;4.77;;;2.77;;
6823;SDS011;58633;49.470;11.004;2023-01-10T06:35:00;5.00;;;2.90;;
6823;SDS011;58633;49.470;11.004;2023-01-10T06:37:26;4.77;;;3.00;;
6823;SDS011;58633;49.470;11.004;2023-01-10T06:39:51;3.80;;;2.73;;
6823;SDS011;58633;49.470;11.004;2023-01-10T06:42:17;5.97;;;3.27;;
6823;SDS011;58633;49.470;11.004;2023-01-10T06:44:42;4.73;;;3.20;;
6823;SDS011;58633;49.470;11.004;2023-01-10T06:47:08;6.13;;;3.23;;
6823;SDS011;58633;49.470;11.004;2023-01-10T06:49:34;5.73;;;3.07;;
6823;SDS011;58633;49.470;11.004;2023-01-10T06:51:59;4.10;;;3.07;;
6823;SDS011;58633;49.470;11.004;2023-01-10T06:54:25;4.67;;;2.87;;
6823;SDS011;58633;49.470;11.004;2023-01-10T06:56:50;5.77;;;3.00;;
6823;SDS011;58633;49.470;11.004;2023-01-10T06:59:16;3.10;;;2.60;;
6823;SDS011;58633;49.470;11.004;2023-01-10T07:01:41;5.00;;;3.03;;
6823;SDS011;58633;49.470;11.004;2023-01-10T07:04:07;4.17;;;2.97;;
6823;SDS011;58633;49.470;11.004;2023-01-10T07:06:38;5.77;;;2.93;;
6823;SDS011;58633;49.470;11.004;2023-01-10T07:09:05;2.93;;;2.60;;
6823;SDS011;58633;49.470;11.004;2023-01-10T07:11:32;4.00;;;2.97;;
6823;SDS011;58633;49.470;11.004;2023-01-10T07:13:59;5.30;;;2.80;;
6823;SDS011;58633;49.470;11.004;2023-01-10T07:16:24;4.83;;;2.57;;
6823;SDS011;58633;49.470;11.004;2023-01-10T07:18:50;6.47;;;2.97;;
6823;SDS011;58633;49.470;11.004;2023-01-10T07:21:16;3.07;;;2.30;;
6823;SDS011;58633;49.470;11.004;2023-01-10T07:23:43;3.43;;;2.10;;
6823;SDS011;58633;49.470;11.004;2023-01-10T07:26:13;4.23;;;2.30;;
6823;SDS011;58633;49.470;11.004;2023-01-10T07:28:43;9.63;;;2.60;;
6823;SDS011;58633;49.470;11.004;2023-01-10T07:31:09;6.17;;;2.70;;
6823;SDS011;58633;49.470;11.004;2023-01-10T07:33:35;5.93;;;2.60;;
6823;SDS011;58633;49.470;11.004;2023-01-10T07:36:01;4.73;;;2.67;;
6823;SDS011;58633;49.470;11.004;2023-01-10T07:38:27;5.20;;;2.70;;
6823;SDS011;58633;49.470;11.004;2023-01-10T07:40:53;6.47;;;2.30;;
6823;SDS011;58633;49.470;11.004;2023-01-10T07:43:18;6.60;;;2.80;;
6823;SDS011;58633;49.470;11.004;2023-01-10T07:45:44;7.47;;;2.40;;
6823;SDS011;58633;49.470;11.004;2023-01-10T07:48:10;6.33;;;2.50;;
6823;SDS011;58633;49.470;11.004;2023-01-10T07:50:36;5.03;;;1.90;;
6823;SDS011;58633;49.470;11.004;2023-01-10T07:53:02;5.30;;;2.40;;
6823;SDS011;58633;49.470;11.004;2023-01-10T07:55:29;3.47;;;2.43;;
6823;SDS011;58633;49.470;11.004;2023-01-10T07:57:56;4.10;;;2.27;;
6823;SDS011;58633;49.470;11.004;2023-01-10T08:00:21;3.93;;;1.90;;
6823;SDS011;58633;49.470;11.004;2023-01-10T08:02:47;6.43;;;3.30;;
6823;SDS011;58633;49.470;11.004;2023-01-10T08:05:17;4.67;;;2.27;;
6823;SDS011;58633;49.470;11.004;2023-01-10T08:07:43;5.97;;;2.20;;
6823;SDS011;58633;49.470;11.004;2023-01-10T08:10:08;4.90;;;3.03;;
6823;SDS011;58633;49.470;11.004;2023-01-10T08:12:35;5.80;;;3.37;;
6823;SDS011;58633;49.470;11.004;2023-01-10T08:15:00;3.80;;;2.70;;
6823;SDS011;58633;49.470;11.004;2023-01-10T08:17:26;9.10;;;2.57;;
6823;SDS011;58633;49.470;11.004;2023-01-10T08:19:51;3.87;;;2.50;;
6823;SDS011;58633;49.470;11.004;2023-01-10T08:22:17;7.03;;;2.53;;
6823;SDS011;58633;49.470;11.004;2023-01-10T08:24:42;6.17;;;2.93;;
6823;SDS011;58633;49.470;11.004;2023-01-10T08:27:08;6.47;;;2.70;;
6823;SDS011;58633;49.470;11.004;2023-01-10T08:29:34;5.87;;;2.40;;
6823;SDS011;58633;49.470;11.004;2023-01-10T08:32:00;4.47;;;2.57;;
6823;SDS011;58633;49.470;11.004;2023-01-10T08:34:25;6.07;;;2.90;;
6823;SDS011;58633;49.470;11.004;2023-01-10T08:36:51;4.87;;;2.70;;
6823;SDS011;58633;49.470;11.004;2023-01-10T08:39:19;6.50;;;2.80;;
6823;SDS011;58633;49.470;11.004;2023-01-10T08:41:46;8.20;;;3.33;;
6823;SDS011;58633;49.470;11.004;2023-01-10T08:44:13;6.87;;;2.87;;
6823;SDS011;58633;49.470;11.004;2023-01-10T08:46:39;6.27;;;3.30;;
6823;SDS011;58633;49.470;11.004;2023-01-10T08:49:06;6.57;;;3.67;;
6823;SDS011;58633;49.470;11.004;2023-01-10T08:51:31;7.10;;;4.00;;
6823;SDS011;58633;49.470;11.004;2023-01-10T08:53:57;7.20;;;3.07;;
6823;SDS011;58633;49.470;11.004;2023-01-10T08:56:22;8.70;;;3.53;;
6823;SDS011;58633;49.470;11.004;2023-01-10T08:58:48;7.20;;;3.67;;
6823;SDS011;58633;49.470;11.004;2023-01-10T09:01:13;6.53;;;3.33;;
6823;SDS011;58633;49.470;11.004;2023-01-10T09:03:39;7.30;;;4.17;;
6823;SDS011;58633;49.470;11.004;2023-01-10T09:06:05;4.97;;;3.00;;
6823;SDS011;58633;49.470;11.004;2023-01-10T09:08:32;11.23;;;5.13;;
6823;SDS011;58633;49.470;11.004;2023-01-10T09:10:58;8.33;;;4.27;;
6823;SDS011;58633;49.470;11.004;2023-01-10T09:13:24;8.77;;;4.43;;
6823;SDS011;58633;49.470;11.004;2023-01-10T09:15:50;15.97;;;7.60;;
6823;SDS011;58633;49.470;11.004;2023-01-10T09:18:16;8.23;;;3.67;;
6823;SDS011;58633;49.470;11.004;2023-01-10T09:20:42;7.93;;;3.73;;
6823;SDS011;58633;49.470;11.004;2023-01-10T09:23:10;11.23;;;4.93;;
6823;SDS011;58633;49.470;11.004;2023-01-10T09:25:41;7.70;;;3.27;;
6823;SDS011;58633;49.470;11.004;2023-01-10T09:28:07;6.53;;;3.43;;
6823;SDS011;58633;49.470;11.004;2023-01-10T09:30:32;10.50;;;3.33;;
6823;SDS011;58633;49.470;11.004;2023-01-10T09:32:59;9.83;;;3.07;;
6823;SDS011;58633;49.470;11.004;2023-01-10T09:35:25;7.17;;;2.70;;
6823;SDS011;58633;49.470;11.004;2023-01-10T09:37:58;7.43;;;3.00;;
6823;SDS011;58633;49.470;11.004;2023-01-10T09:40:29;6.87;;;2.73;;
6823;SDS011;58633;49.470;11.004;2023-01-10T09:43:16;4.43;;;2.50;;
6823;SDS011;58633;49.470;11.004;2023-01-10T09:52:05;5.20;;;2.50;;
6823;SDS011;58633;49.470;11.004;2023-01-10T09:54:46;4.53;;;2.60;;
6823;SDS011;58633;49.470;11.004;2023-01-10T09:57:17;5.43;;;2.63;;
6823;SDS011;58633;49.470;11.004;2023-01-10T09:59:44;7.37;;;2.70;;
6823;SDS011;58633;49.470;11.004;2023-01-10T10:02:31;6.27;;;2.20;;
6823;SDS011;58633;49.470;11.004;2023-01-10T10:05:10;6.60;;;2.30;;
6823;SDS011;58633;49.470;11.004;2023-01-10T10:07:42;4.57;;;2.40;;
6823;SDS011;58633;49.470;11.004;2023-01-10T10:10:12;5.67;;;3.20;;
6823;SDS011;58633;49.470;11.004;2023-01-10T10:13:02;9.93;;;3.93;;
6823;SDS011;58633;49.470;11.004;2023-01-10T10:18:54;6.67;;;2.60;;
6823;SDS011;58633;49.470;11.004;2023-01-10T10:21:48;5.40;;;2.33;;
6823;SDS011;58633;49.470;11.004;2023-01-10T10:24:35;5.80;;;2.80;;
6823;SDS011;58633;49.470;11.004;2023-01-10T10:30:32;9.20;;;4.40;;
6823;SDS011;58633;49.470;11.004;2023-01-10T10:33:03;9.10;;;3.07;;
6823;SDS011;58633;49.470;11.004;2023-01-10T10:35:40;8.93;;;4.10;;
6823;SDS011;58633;49.470;11.004;2023-01-10T10:38:19;5.60;;;2.93;;
6823;SDS011;58633;49.470;11.004;2023-01-10T10:40:49;4.83;;;2.30;;
6823;SDS011;58633;49.470;11.004;2023-01-10T10:43:18;5.73;;;2.30;;
6823;SDS011;58633;49.470;11.004;2023-01-10T10:45:48;5.07;;;2.97;;
6823;SDS011;58633;49.470;11.004;2023-01-10T10:48:19;6.10;;;2.57;;
6823;SDS011;58633;49.470;11.004;2023-01-10T10:53:39;4.57;;;2.40;;
6823;SDS011;58633;49.470;11.004;2023-01-10T10:56:05;5.70;;;2.60;;
6823;SDS011;58633;49.470;11.004;2023-01-10T10:58:37;7.70;;;2.70;;
6823;SDS011;58633;49.470;11.004;2023-01-10T11:01:05;6.67;;;2.47;;
6823;SDS011;58633;49.470;11.004;2023-01-10T11:03:43;5.10;;;2.43;;
6823;SDS011;58633;49.470;11.004;2023-01-10T11:06:12;5.23;;;2.73;;
6823;SDS011;58633;49.470;11.004;2023-01-10T11:08:42;9.13;;;3.90;;
6823;SDS011;58633;49.470;11.004;2023-01-10T11:11:15;6.10;;;2.40;;
6823;SDS011;58633;49.470;11.004;2023-01-10T11:13:54;6.47;;;2.50;;
6823;SDS011;58633;49.470;11.004;2023-01-10T11:19:14;6.90;;;2.50;;
6823;SDS011;58633;49.470;11.004;2023-01-10T11:22:05;4.40;;;2.70;;
6823;SDS011;58633;49.470;11.004;2023-01-10T11:24:42;6.03;;;2.20;;
6823;SDS011;58633;49.470;11.004;2023-01-10T11:27:20;6.50;;;2.13;;
6823;SDS011;58633;49.470;11.004;2023-01-10T11:29:49;5.43;;;1.97;;
6823;SDS011;58633;49.470;11.004;2023-01-10T11:32:21;6.77;;;2.17;;
6823;SDS011;58633;49.470;11.004;2023-01-10T11:34:55;7.07;;;2.10;;
6823;SDS011;58633;49.470;11.004;2023-01-10T11:37:25;5.87;;;2.00;;
6823;SDS011;58633;49.470;11.004;2023-01-10T11:40:17;4.67;;;2.03;;
6823;SDS011;58633;49.470;11.004;2023-01-10T11:42:47;7.37;;;2.90;;
6823;SDS011;58633;49.470;11.004;2023-01-10T11:47:41;5.30;;;2.03;;
6823;SDS011;58633;49.470;11.004;2023-01-10T11:50:10;6.63;;;2.27;;
6823;SDS011;58633;49.470;11.004;2023-01-10T11:52:42;8.17;;;2.93;;
6823;SDS011;58633;49.470;11.004;2023-01-10T11:55:09;7.00;;;2.50;;
6823;SDS011;58633;49.470;11.004;2023-01-10T11:57:42;6.70;;;2.00;;
6823;SDS011;58633;49.470;11.004;2023-01-10T12:00:08;7.77;;;2.40;;
6823;SDS011;58633;49.470;11.004;2023-01-10T12:02:35;8.47;;;2.50;;
6823;SDS011;58633;49.470;11.004;2023-01-10T12:05:05;5.90;;;2.53;;
6823;SDS011;58633;49.470;11.004;2023-01-10T12:07:56;10.07;;;2.77;;
6823;SDS011;58633;49.470;11.004;2023-01-10T12:10:31;9.87;;;2.37;;
6823;SDS011;58633;49.470;11.004;2023-01-10T12:15:37;10.07;;;3.30;;
6823;SDS011;58633;49.470;11.004;2023-01-10T12:18:03;7.70;;;2.27;;
6823;SDS011;58633;49.470;11.004;2023-01-10T12:20:31;6.60;;;2.33;;
6823;SDS011;58633;49.470;11.004;2023-01-10T12:23:04;5.27;;;2.10;;
6823;SDS011;58633;49.470;11.004;2023-01-10T12:25:41;5.20;;;1.90;;
6823;SDS011;58633;49.470;11.004;2023-01-10T12:28:27;7.37;;;2.33;;
6823;SDS011;58633;49.470;11.004;2023-01-10T12:30:54;6.60;;;2.30;;
6823;SDS011;58633;49.470;11.004;2023-01-10T12:33:22;6.10;;;2.30;;
6823;SDS011;58633;49.470;11.004;2023-01-10T12:38:41;5.33;;;2.00;;
6823;SDS011;58633;49.470;11.004;2023-01-10T12:41:49;7.70;;;2.17;;
6823;SDS011;58633;49.470;11.004;2023-01-10T12:50:22;7.17;;;2.13;;
6823;SDS011;58633;49.470;11.004;2023-01-10T12:55:38;6.23;;;2.10;;
6823;SDS011;58633;49.470;11.004;2023-01-10T12:58:10;7.17;;;2.40;;
6823;SDS011;58633;49.470;11.004;2023-01-10T13:00:44;9.17;;;2.20;;
6823;SDS011;58633;49.470;11.004;2023-01-10T13:03:12;7.03;;;2.20;;
6823;SDS011;58633;49.470;11.004;2023-01-10T13:05:43;8.17;;;2.70;;
6823;SDS011;58633;49.470;11.004;2023-01-10T13:08:12;7.93;;;2.23;;
6823;SDS011;58633;49.470;11.004;2023-01-10T13:10:43;10.67;;;2.33;;
6823;SDS011;58633;49.470;11.004;2023-01-10T13:18:25;7.17;;;2.10;;
6823;SDS011;58633;49.470;11.004;2023-01-10T13:21:00;6.17;;;2.27;;
6823;SDS011;58633;49.470;11.004;2023-01-10T13:23:28;4.67;;;2.17;;
6823;SDS011;58633;49.470;11.004;2023-01-10T13:25:58;6.23;;;2.17;;
6823;SDS011;58633;49.470;11.004;2023-01-10T13:28:33;5.37;;;2.10;;
6823;SDS011;58633;49.470;11.004;2023-01-10T13:31:02;5.20;;;2.07;;
6823;SDS011;58633;49.470;11.004;2023-01-10T13:33:32;10.60;;;2.00;;
6823;SDS011;58633;49.470;11.004;2023-01-10T13:36:08;10.70;;;2.17;;
6823;SDS011;58633;49.470;11.004;2023-01-10T13:41:16;8.33;;;2.60;;
6823;SDS011;58633;49.470;11.004;2023-01-10T13:46:39;4.63;;;2.50;;
6823;SDS011;58633;49.470;11.004;2023-01-10T13:51:35;6.13;;;2.73;;
6823;SDS011;58633;49.470;11.004;2023-01-10T13:56:41;6.83;;;2.03;;
6823;SDS011;58633;49.470;11.004;2023-01-10T14:02:12;6.83;;;1.93;;
6823;SDS011;58633;49.470;11.004;2023-01-10T14:10:39;5.50;;;2.10;;
6823;SDS011;58633;49.470;11.004;2023-01-10T14:12:51;7.40;;;2.07;;
6823;SDS011;58633;49.470;11.004;2023-01-10T14:15:22;4.40;;;1.60;;
6823;SDS011;58633;49.470;11.004;2023-01-10T14:18:01;7.70;;;2.10;;
6823;SDS011;58633;49.470;11.004;2023-01-10T14:20:27;5.10;;;1.60;;
6823;SDS011;58633;49.470;11.004;2023-01-10T14:22:56;6.67;;;2.30;;
6823;SDS011;58633;49.470;11.004;2023-01-10T14:25:25;4.43;;;2.30;;
6823;SDS011;58633;49.470;11.004;2023-01-10T14:27:52;8.30;;;1.90;;
6823;SDS011;58633;49.470;11.004;2023-01-10T14:30:20;6.40;;;2.90;;
6823;SDS011;58633;49.470;11.004;2023-01-10T14:32:50;8.17;;;2.43;;
6823;SDS011;58633;49.470;11.004;2023-01-10T14:35:20;8.13;;;2.47;;
6823;SDS011;58633;49.470;11.004;2023-01-10T14:37:50;10.73;;;2.83;;
6823;SDS011;58633;49.470;11.004;2023-01-10T14:40:22;9.93;;;4.27;;
6823;SDS011;58633;49.470;11.004;2023-01-10T14:43:08;8.97;;;2.50;;
6823;SDS011;58633;49.470;11.004;2023-01-10T14:48:25;7.43;;;2.40;;
6823;SDS011;58633;49.470;11.004;2023-01-10T14:53:56;13.90;;;3.23;;
6823;SDS011;58633;49.470;11.004;2023-01-10T14:56:29;11.47;;;3.97;;
6823;SDS011;58633;49.470;11.004;2023-01-10T15:01:53;9.97;;;2.90;;
6823;SDS011;58633;49.470;11.004;2023-01-10T15:04:28;11.87;;;3.87;;
6823;SDS011;58633;49.470;11.004;2023-01-10T15:06:57;15.20;;;4.03;;
6823;SDS011;58633;49.470;11.004;2023-01-10T15:09:27;6.97;;;3.03;;
6823;SDS011;58633;49.470;11.004;2023-01-10T15:11:56;8.53;;;3.40;;
6823;SDS011;58633;49.470;11.004;2023-01-10T15:14:24;15.23;;;4.57;;
6823;SDS011;58633;49.470;11.004;2023-01-10T15:16:53;11.47;;;3.53;;
6823;SDS011;58633;49.470;11.004;2023-01-10T15:19:26;8.53;;;3.07;;
6823;SDS011;58633;49.470;11.004;2023-01-10T15:21:55;10.67;;;3.47;;
6823;SDS011;58633;49.470;11.004;2023-01-10T15:24:22;5.03;;;2.40;;
6823;SDS011;58633;49.470;11.004;2023-01-10T15:27:02;8.17;;;2.57;;
6823;SDS011;58633;49.470;11.004;2023-01-10T15:29:31;8.33;;;3.33;;
6823;SDS011;58633;49.470;11.004;2023-01-10T15:32:02;9.23;;;2.80;;
6823;SDS011;58633;49.470;11.004;2023-01-10T15:34:33;9.67;;;3.33;;
6823;SDS011;58633;49.470;11.004;2023-01-10T15:37:00;6.57;;;2.50;;
6823;SDS011;58633;49.470;11.004;2023-01-10T15:39:34;15.17;;;8.87;;
6823;SDS011;58633;49.470;11.004;2023-01-10T15:42:03;17.80;;;10.07;;
6823;SDS011;58633;49.470;11.004;2023-01-10T15:47:04;8.07;;;3.13;;
6823;SDS011;58633;49.470;11.004;2023-01-10T15:49:53;8.87;;;3.00;;
6823;SDS011;58633;49.470;11.004;2023-01-10T15:52:20;7.87;;;2.67;;
6823;SDS011;58633;49.470;11.004;2023-01-10T15:54:46;5.60;;;2.30;;
6823;SDS011;58633;49.470;11.004;2023-01-10T15:57:18;10.60;;;3.90;;
6823;SDS011;58633;49.470;11.004;2023-01-10T15:59:53;8.40;;;3.30;;
6823;SDS011;58633;49.470;11.004;2023-01-10T16:02:31;11.20;;;4.17;;
6823;SDS011;58633;49.470;11.004;2023-01-10T16:05:07;10.03;;;3.60;;
6823;SDS011;58633;49.470;11.004;2023-01-10T16:07:41;11.13;;;4.80;;
6823;SDS011;58633;49.470;11.004;2023-01-10T16:10:24;10.47;;;5.57;;
6823;SDS011;58633;49.470;11.004;2023-01-10T16:12:51;16.27;;;3.70;;
6823;SDS011;58633;49.470;11.004;2023-01-10T16:15:36;11.23;;;3.73;;
6823;SDS011;58633;49.470;11.004;2023-01-10T16:18:05;12.77;;;4.87;;
6823;SDS011;58633;49.470;11.004;2023-01-10T16:20:34;15.37;;;6.13;;
6823;SDS011;58633;49.470;11.004;2023-01-10T16:23:02;10.27;;;4.63;;
6823;SDS011;58633;49.470;11.004;2023-01-10T16:25:31;14.67;;;7.57;;
6823;SDS011;58633;49.470;11.004;2023-01-10T16:27:59;8.83;;;4.20;;
6823;SDS011;58633;49.470;11.004;2023-01-10T16:32:53;8.17;;;3.70;;
6823;SDS011;58633;49.470;11.004;2023-01-10T16:35:21;7.77;;;3.17;;
6823;SDS011;58633;49.470;11.004;2023-01-10T16:37:47;6.73;;;3.20;;
6823;SDS011;58633;49.470;11.004;2023-01-10T16:42:51;11.30;;;4.33;;
6823;SDS011;58633;49.470;11.004;2023-01-10T16:45:37;8.27;;;3.20;;
6823;SDS011;58633;49.470;11.004;2023-01-10T16:48:02;8.90;;;3.17;;
6823;SDS011;58633;49.470;11.004;2023-01-10T16:50:28;8.87;;;2.87;;
6823;SDS011;58633;49.470;11.004;2023-01-10T16:52:54;8.23;;;3.33;;